sensor_id;sensor_type;location;lat;lon;timestamp;temperature;humidity
54192;DHT22;40101;53.002;6.488;2022-12-29T00:00:49;10.20;99.90
54192;DHT22;40101;53.002;6.488;2022-12-29T00:03:16;10.20;99.90
54192;DHT22;40101;53.002;6.488;2022-12-29T00:05:43;10.20;99.90
54192;DHT22;40101;53.002;6.488;2022-12-29T00:08:09;10.20;99.90
54192;DHT22;40101;53.002;6.488;2022-12-29T00:10:35;10.20;99.90
54192;DHT22;40101;53.002;6.488;2022-12-29T00:13:01;10.10;99.90
54192;DHT22;40101;53.002;6.488;2022-12-29T00:15:49;10.10;99.90
54192;DHT22;40101;53.002;6.488;2022-12-29T00:18:15;10.20;99.90
54192;DHT22;40101;53.002;6.488;2022-12-29T00:20:41;10.30;99.90
54192;DHT22;40101;53.002;6.488;2022-12-29T00:23:25;10.10;99.90
54192;DHT22;40101;53.002;6.488;2022-12-29T00:26:18;10.10;99.90
54192;DHT22;40101;53.002;6.488;2022-12-29T00:29:02;10.10;99.90
54192;DHT22;40101;53.002;6.488;2022-12-29T00:31:46;10.10;99.90
54192;DHT22;40101;53.002;6.488;2022-12-29T00:34:31;10.10;99.90
54192;DHT22;40101;53.002;6.488;2022-12-29T00:37:17;10.10;99.90
54192;DHT22;40101;53.002;6.488;2022-12-29T00:39:42;10.40;99.90
54192;DHT22;40101;53.002;6.488;2022-12-29T00:42:26;10.20;99.90
54192;DHT22;40101;53.002;6.488;2022-12-29T00:45:11;10.20;99.90
54192;DHT22;40101;53.002;6.488;2022-12-29T00:47:36;10.30;99.90
54192;DHT22;40101;53.002;6.488;2022-12-29T00:50:02;10.50;99.90
54192;DHT22;40101;53.002;6.488;2022-12-29T00:52:28;10.20;99.90
54192;DHT22;40101;53.002;6.488;2022-12-29T00:54:55;10.20;99.90
54192;DHT22;40101;53.002;6.488;2022-12-29T00:57:20;10.20;99.90
54192;DHT22;40101;53.002;6.488;2022-12-29T00:59:46;10.30;99.90
54192;DHT22;40101;53.002;6.488;2022-12-29T01:02:12;10.40;99.90
54192;DHT22;40101;53.002;6.488;2022-12-29T01:04:37;10.30;99.90
54192;DHT22;40101;53.002;6.488;2022-12-29T01:07:03;10.30;99.90
54192;DHT22;40101;53.002;6.488;2022-12-29T01:09:30;10.20;99.90
54192;DHT22;40101;53.002;6.488;2022-12-29T01:12:14;10.40;99.90
54192;DHT22;40101;53.002;6.488;2022-12-29T01:14:40;10.30;99.90
54192;DHT22;40101;53.002;6.488;2022-12-29T01:17:06;10.30;99.90
54192;DHT22;40101;53.002;6.488;2022-12-29T01:19:32;10.30;99.90
54192;DHT22;40101;53.002;6.488;2022-12-29T01:21:57;10.50;99.90
54192;DHT22;40101;53.002;6.488;2022-12-29T01:24:23;10.60;99.90
54192;DHT22;40101;53.002;6.488;2022-12-29T01:26:50;10.50;99.90
54192;DHT22;40101;53.002;6.488;2022-12-29T01:29:16;10.90;99.90
54192;DHT22;40101;53.002;6.488;2022-12-29T01:31:42;10.40;99.90
54192;DHT22;40101;53.002;6.488;2022-12-29T01:34:08;10.30;99.90
54192;DHT22;40101;53.002;6.488;2022-12-29T01:36:34;10.30;99.90
54192;DHT22;40101;53.002;6.488;2022-12-29T01:39:00;10.40;99.90
54192;DHT22;40101;53.002;6.488;2022-12-29T01:41:26;10.40;99.90
54192;DHT22;40101;53.002;6.488;2022-12-29T01:43:54;10.30;99.90
54192;DHT22;40101;53.002;6.488;2022-12-29T01:46:40;10.50;99.90
54192;DHT22;40101;53.002;6.488;2022-12-29T01:49:19;10.50;99.90
54192;DHT22;40101;53.002;6.488;2022-12-29T01:51:50;10.40;99.90
54192;DHT22;40101;53.002;6.488;2022-12-29T01:54:22;10.80;99.90
54192;DHT22;40101;53.002;6.488;2022-12-29T01:56:51;10.40;99.90
54192;DHT22;40101;53.002;6.488;2022-12-29T01:59:20;10.40;99.90
54192;DHT22;40101;53.002;6.488;2022-12-29T02:01:46;10.90;99.90
54192;DHT22;40101;53.002;6.488;2022-12-29T02:04:12;10.80;99.90
54192;DHT22;40101;53.002;6.488;2022-12-29T02:06:49;10.50;99.90
54192;DHT22;40101;53.002;6.488;2022-12-29T02:09:16;10.50;99.90
54192;DHT22;40101;53.002;6.488;2022-12-29T02:11:42;10.50;99.90
54192;DHT22;40101;53.002;6.488;2022-12-29T02:14:10;10.50;99.90
54192;DHT22;40101;53.002;6.488;2022-12-29T02:25:00;10.50;99.90
54192;DHT22;40101;53.002;6.488;2022-12-29T02:38:50;10.40;99.90
54192;DHT22;40101;53.002;6.488;2022-12-29T02:43:56;10.40;99.90
54192;DHT22;40101;53.002;6.488;2022-12-29T02:47:04;10.50;99.90
54192;DHT22;40101;53.002;6.488;2022-12-29T02:52:01;10.60;99.90
54192;DHT22;40101;53.002;6.488;2022-12-29T02:54:27;10.40;99.90
54192;DHT22;40101;53.002;6.488;2022-12-29T02:57:33;10.40;99.90
54192;DHT22;40101;53.002;6.488;2022-12-29T03:00:11;10.60;99.90
54192;DHT22;40101;53.002;6.488;2022-12-29T03:02:47;10.40;99.90
54192;DHT22;40101;53.002;6.488;2022-12-29T03:08:22;10.40;99.90
54192;DHT22;40101;53.002;6.488;2022-12-29T03:11:02;10.40;99.90
54192;DHT22;40101;53.002;6.488;2022-12-29T03:13:50;10.90;99.90
54192;DHT22;40101;53.002;6.488;2022-12-29T03:16:42;10.70;99.90
54192;DHT22;40101;53.002;6.488;2022-12-29T03:19:32;10.50;99.90
54192;DHT22;40101;53.002;6.488;2022-12-29T03:22:17;10.50;99.90
54192;DHT22;40101;53.002;6.488;2022-12-29T03:25:19;10.50;99.90
54192;DHT22;40101;53.002;6.488;2022-12-29T03:28:26;10.50;99.90
54192;DHT22;40101;53.002;6.488;2022-12-29T03:30:43;10.50;99.90
54192;DHT22;40101;53.002;6.488;2022-12-29T03:33:13;10.50;99.90
54192;DHT22;40101;53.002;6.488;2022-12-29T03:35:42;10.50;99.90
54192;DHT22;40101;53.002;6.488;2022-12-29T03:40:52;10.40;99.90
54192;DHT22;40101;53.002;6.488;2022-12-29T03:43:21;10.30;99.90
54192;DHT22;40101;53.002;6.488;2022-12-29T03:45:47;10.40;99.90
54192;DHT22;40101;53.002;6.488;2022-12-29T03:48:13;10.30;99.90
54192;DHT22;40101;53.002;6.488;2022-12-29T03:50:39;10.20;99.90
54192;DHT22;40101;53.002;6.488;2022-12-29T03:53:05;10.20;99.90
54192;DHT22;40101;53.002;6.488;2022-12-29T03:55:30;10.20;99.90
54192;DHT22;40101;53.002;6.488;2022-12-29T03:57:57;10.20;99.90
54192;DHT22;40101;53.002;6.488;2022-12-29T04:00:23;10.20;99.90
54192;DHT22;40101;53.002;6.488;2022-12-29T04:02:49;10.20;99.90
54192;DHT22;40101;53.002;6.488;2022-12-29T04:05:15;10.20;99.90
54192;DHT22;40101;53.002;6.488;2022-12-29T04:07:41;10.30;99.90
54192;DHT22;40101;53.002;6.488;2022-12-29T04:10:07;10.10;99.90
54192;DHT22;40101;53.002;6.488;2022-12-29T04:12:33;10.10;99.90
54192;DHT22;40101;53.002;6.488;2022-12-29T04:14:58;10.10;99.90
54192;DHT22;40101;53.002;6.488;2022-12-29T04:17:24;10.10;99.90
54192;DHT22;40101;53.002;6.488;2022-12-29T04:19:51;10.20;99.90
54192;DHT22;40101;53.002;6.488;2022-12-29T04:22:16;10.10;99.90
54192;DHT22;40101;53.002;6.488;2022-12-29T04:24:42;10.10;99.90
54192;DHT22;40101;53.002;6.488;2022-12-29T04:27:08;10.20;99.90
54192;DHT22;40101;53.002;6.488;2022-12-29T04:29:33;10.10;99.90
54192;DHT22;40101;53.002;6.488;2022-12-29T04:31:59;10.00;99.90
54192;DHT22;40101;53.002;6.488;2022-12-29T04:34:25;10.40;99.90
54192;DHT22;40101;53.002;6.488;2022-12-29T04:36:50;10.10;99.90
54192;DHT22;40101;53.002;6.488;2022-12-29T04:39:16;10.10;99.90
54192;DHT22;40101;53.002;6.488;2022-12-29T04:41:42;10.00;99.90
54192;DHT22;40101;53.002;6.488;2022-12-29T04:44:07;10.10;99.90
54192;DHT22;40101;53.002;6.488;2022-12-29T04:46:33;10.00;99.90
54192;DHT22;40101;53.002;6.488;2022-12-29T04:48:59;10.00;99.90
54192;DHT22;40101;53.002;6.488;2022-12-29T04:51:29;10.20;99.90
54192;DHT22;40101;53.002;6.488;2022-12-29T04:53:55;10.60;99.90
54192;DHT22;40101;53.002;6.488;2022-12-29T04:56:21;9.80;99.90
54192;DHT22;40101;53.002;6.488;2022-12-29T04:58:47;9.70;99.90
54192;DHT22;40101;53.002;6.488;2022-12-29T05:01:12;9.70;99.90
54192;DHT22;40101;53.002;6.488;2022-12-29T05:03:38;9.70;99.90
54192;DHT22;40101;53.002;6.488;2022-12-29T05:06:06;9.80;99.90
54192;DHT22;40101;53.002;6.488;2022-12-29T05:08:32;9.60;99.90
54192;DHT22;40101;53.002;6.488;2022-12-29T05:10:57;9.50;99.90
54192;DHT22;40101;53.002;6.488;2022-12-29T05:13:23;9.50;99.90
54192;DHT22;40101;53.002;6.488;2022-12-29T05:15:52;9.60;99.90
54192;DHT22;40101;53.002;6.488;2022-12-29T05:18:19;9.50;99.90
54192;DHT22;40101;53.002;6.488;2022-12-29T05:20:46;9.50;99.90
54192;DHT22;40101;53.002;6.488;2022-12-29T05:23:13;9.50;99.90
54192;DHT22;40101;53.002;6.488;2022-12-29T05:25:38;9.50;99.90
54192;DHT22;40101;53.002;6.488;2022-12-29T05:28:04;9.50;99.90
54192;DHT22;40101;53.002;6.488;2022-12-29T05:30:30;9.50;99.90
54192;DHT22;40101;53.002;6.488;2022-12-29T05:32:55;9.50;99.90
54192;DHT22;40101;53.002;6.488;2022-12-29T05:35:21;9.20;99.90
54192;DHT22;40101;53.002;6.488;2022-12-29T05:37:47;9.60;99.90
54192;DHT22;40101;53.002;6.488;2022-12-29T05:40:12;9.40;99.90
54192;DHT22;40101;53.002;6.488;2022-12-29T05:42:38;9.40;99.90
54192;DHT22;40101;53.002;6.488;2022-12-29T05:45:04;9.40;99.90
54192;DHT22;40101;53.002;6.488;2022-12-29T05:47:32;9.30;99.90
54192;DHT22;40101;53.002;6.488;2022-12-29T05:49:58;9.30;99.90
54192;DHT22;40101;53.002;6.488;2022-12-29T05:52:23;9.30;99.90
54192;DHT22;40101;53.002;6.488;2022-12-29T05:54:49;9.50;99.90
54192;DHT22;40101;53.002;6.488;2022-12-29T05:57:14;9.20;99.90
54192;DHT22;40101;53.002;6.488;2022-12-29T05:59:40;9.20;99.90
54192;DHT22;40101;53.002;6.488;2022-12-29T06:02:06;9.30;99.90
54192;DHT22;40101;53.002;6.488;2022-12-29T06:04:31;9.30;99.90
54192;DHT22;40101;53.002;6.488;2022-12-29T06:06:57;9.30;99.90
54192;DHT22;40101;53.002;6.488;2022-12-29T06:09:22;9.30;99.90
54192;DHT22;40101;53.002;6.488;2022-12-29T06:11:48;9.30;99.90
54192;DHT22;40101;53.002;6.488;2022-12-29T06:14:14;9.30;99.90
54192;DHT22;40101;53.002;6.488;2022-12-29T06:16:39;9.30;99.90
54192;DHT22;40101;53.002;6.488;2022-12-29T06:19:05;9.30;99.90
54192;DHT22;40101;53.002;6.488;2022-12-29T06:21:31;9.30;99.90
54192;DHT22;40101;53.002;6.488;2022-12-29T06:23:56;9.30;99.90
54192;DHT22;40101;53.002;6.488;2022-12-29T06:26:22;9.30;99.90
54192;DHT22;40101;53.002;6.488;2022-12-29T06:28:47;9.20;99.90
54192;DHT22;40101;53.002;6.488;2022-12-29T06:31:13;9.30;99.90
54192;DHT22;40101;53.002;6.488;2022-12-29T06:33:39;9.30;99.90
54192;DHT22;40101;53.002;6.488;2022-12-29T06:36:05;9.30;99.90
54192;DHT22;40101;53.002;6.488;2022-12-29T06:38:30;9.30;99.90
54192;DHT22;40101;53.002;6.488;2022-12-29T06:40:56;9.20;99.90
54192;DHT22;40101;53.002;6.488;2022-12-29T06:43:22;9.20;99.90
54192;DHT22;40101;53.002;6.488;2022-12-29T06:45:47;9.20;99.90
54192;DHT22;40101;53.002;6.488;2022-12-29T06:48:13;9.10;99.90
54192;DHT22;40101;53.002;6.488;2022-12-29T06:50:39;9.10;99.90
54192;DHT22;40101;53.002;6.488;2022-12-29T06:53:04;9.20;99.90
54192;DHT22;40101;53.002;6.488;2022-12-29T06:55:30;9.20;99.90
54192;DHT22;40101;53.002;6.488;2022-12-29T06:57:58;9.50;99.90
54192;DHT22;40101;53.002;6.488;2022-12-29T07:00:25;9.20;99.90
54192;DHT22;40101;53.002;6.488;2022-12-29T07:02:50;9.50;99.90
54192;DHT22;40101;53.002;6.488;2022-12-29T07:05:16;9.30;99.90
54192;DHT22;40101;53.002;6.488;2022-12-29T07:07:42;9.30;99.90
54192;DHT22;40101;53.002;6.488;2022-12-29T07:10:08;9.30;99.90
54192;DHT22;40101;53.002;6.488;2022-12-29T07:12:33;9.30;99.90
54192;DHT22;40101;53.002;6.488;2022-12-29T07:14:59;9.30;99.90
54192;DHT22;40101;53.002;6.488;2022-12-29T07:17:25;9.70;99.90
54192;DHT22;40101;53.002;6.488;2022-12-29T07:19:50;9.40;99.90
54192;DHT22;40101;53.002;6.488;2022-12-29T07:22:16;9.40;99.90
54192;DHT22;40101;53.002;6.488;2022-12-29T07:24:42;9.40;99.90
54192;DHT22;40101;53.002;6.488;2022-12-29T07:27:08;9.40;99.90
54192;DHT22;40101;53.002;6.488;2022-12-29T07:29:36;9.40;99.90
54192;DHT22;40101;53.002;6.488;2022-12-29T07:32:02;9.40;99.90
54192;DHT22;40101;53.002;6.488;2022-12-29T07:34:28;9.40;99.90
54192;DHT22;40101;53.002;6.488;2022-12-29T07:36:53;9.40;99.90
54192;DHT22;40101;53.002;6.488;2022-12-29T07:39:19;9.40;99.90
54192;DHT22;40101;53.002;6.488;2022-12-29T07:41:45;9.40;99.90
54192;DHT22;40101;53.002;6.488;2022-12-29T07:44:11;9.40;99.90
54192;DHT22;40101;53.002;6.488;2022-12-29T07:46:36;9.50;99.90
54192;DHT22;40101;53.002;6.488;2022-12-29T07:49:02;9.40;99.90
54192;DHT22;40101;53.002;6.488;2022-12-29T07:51:27;9.50;99.90
54192;DHT22;40101;53.002;6.488;2022-12-29T07:53:53;9.50;99.90
54192;DHT22;40101;53.002;6.488;2022-12-29T07:56:19;9.40;99.90
54192;DHT22;40101;53.002;6.488;2022-12-29T07:58:45;9.40;99.90
54192;DHT22;40101;53.002;6.488;2022-12-29T08:01:10;9.70;99.90
54192;DHT22;40101;53.002;6.488;2022-12-29T08:03:36;9.50;99.90
54192;DHT22;40101;53.002;6.488;2022-12-29T08:06:02;9.50;99.90
54192;DHT22;40101;53.002;6.488;2022-12-29T08:08:28;9.50;99.90
54192;DHT22;40101;53.002;6.488;2022-12-29T08:10:54;9.50;99.90
54192;DHT22;40101;53.002;6.488;2022-12-29T08:13:20;9.50;99.90
54192;DHT22;40101;53.002;6.488;2022-12-29T08:15:45;9.50;99.90
54192;DHT22;40101;53.002;6.488;2022-12-29T08:18:11;9.50;99.90
54192;DHT22;40101;53.002;6.488;2022-12-29T08:20:36;9.60;99.90
54192;DHT22;40101;53.002;6.488;2022-12-29T08:23:02;9.50;99.90
54192;DHT22;40101;53.002;6.488;2022-12-29T08:25:28;9.50;99.90
54192;DHT22;40101;53.002;6.488;2022-12-29T08:27:53;9.50;99.90
54192;DHT22;40101;53.002;6.488;2022-12-29T08:30:19;9.50;99.90
54192;DHT22;40101;53.002;6.488;2022-12-29T08:32:45;9.50;99.90
54192;DHT22;40101;53.002;6.488;2022-12-29T08:35:11;9.50;99.90
54192;DHT22;40101;53.002;6.488;2022-12-29T08:37:38;9.50;99.90
54192;DHT22;40101;53.002;6.488;2022-12-29T08:40:04;9.50;99.90
54192;DHT22;40101;53.002;6.488;2022-12-29T08:42:32;9.50;99.90
54192;DHT22;40101;53.002;6.488;2022-12-29T08:44:59;9.50;99.90
54192;DHT22;40101;53.002;6.488;2022-12-29T08:47:25;9.50;99.90
54192;DHT22;40101;53.002;6.488;2022-12-29T08:49:51;9.50;99.90
54192;DHT22;40101;53.002;6.488;2022-12-29T08:52:17;9.50;99.90
54192;DHT22;40101;53.002;6.488;2022-12-29T08:54:43;9.50;99.90
54192;DHT22;40101;53.002;6.488;2022-12-29T08:57:09;9.60;99.90
54192;DHT22;40101;53.002;6.488;2022-12-29T08:59:35;9.50;99.90
54192;DHT22;40101;53.002;6.488;2022-12-29T09:02:01;9.50;99.90
54192;DHT22;40101;53.002;6.488;2022-12-29T09:04:27;9.50;99.90
54192;DHT22;40101;53.002;6.488;2022-12-29T09:06:54;9.60;99.90
54192;DHT22;40101;53.002;6.488;2022-12-29T09:09:20;9.50;99.90
54192;DHT22;40101;53.002;6.488;2022-12-29T09:11:46;9.50;99.90
54192;DHT22;40101;53.002;6.488;2022-12-29T09:14:12;9.50;99.90
54192;DHT22;40101;53.002;6.488;2022-12-29T09:16:38;9.40;99.90
54192;DHT22;40101;53.002;6.488;2022-12-29T09:19:04;9.60;99.90
54192;DHT22;40101;53.002;6.488;2022-12-29T09:21:30;9.30;99.90
54192;DHT22;40101;53.002;6.488;2022-12-29T09:23:55;9.30;99.90
54192;DHT22;40101;53.002;6.488;2022-12-29T09:26:21;9.30;99.90
54192;DHT22;40101;53.002;6.488;2022-12-29T09:28:47;9.20;99.90
54192;DHT22;40101;53.002;6.488;2022-12-29T09:31:13;9.20;99.90
54192;DHT22;40101;53.002;6.488;2022-12-29T09:33:39;9.30;99.90
54192;DHT22;40101;53.002;6.488;2022-12-29T09:36:05;9.30;99.90
54192;DHT22;40101;53.002;6.488;2022-12-29T09:38:31;9.40;99.90
54192;DHT22;40101;53.002;6.488;2022-12-29T09:41:05;9.40;99.90
54192;DHT22;40101;53.002;6.488;2022-12-29T09:46:27;9.40;99.90
54192;DHT22;40101;53.002;6.488;2022-12-29T09:51:48;9.50;99.90
54192;DHT22;40101;53.002;6.488;2022-12-29T09:54:38;9.50;99.90
54192;DHT22;40101;53.002;6.488;2022-12-29T09:57:22;9.40;99.90
54192;DHT22;40101;53.002;6.488;2022-12-29T09:59:50;9.30;99.90
54192;DHT22;40101;53.002;6.488;2022-12-29T10:02:38;9.30;99.90
54192;DHT22;40101;53.002;6.488;2022-12-29T10:07:53;9.10;99.90
54192;DHT22;40101;53.002;6.488;2022-12-29T10:10:56;9.10;99.90
54192;DHT22;40101;53.002;6.488;2022-12-29T10:16:23;9.00;99.90
54192;DHT22;40101;53.002;6.488;2022-12-29T10:24:12;9.00;99.90
54192;DHT22;40101;53.002;6.488;2022-12-29T10:26:41;9.00;99.90
54192;DHT22;40101;53.002;6.488;2022-12-29T10:29:25;8.90;99.90
54192;DHT22;40101;53.002;6.488;2022-12-29T10:31:59;8.90;99.90
54192;DHT22;40101;53.002;6.488;2022-12-29T10:34:29;8.90;99.90
54192;DHT22;40101;53.002;6.488;2022-12-29T10:37:02;8.80;99.90
54192;DHT22;40101;53.002;6.488;2022-12-29T10:39:51;8.80;99.90
54192;DHT22;40101;53.002;6.488;2022-12-29T10:42:28;8.80;99.90
54192;DHT22;40101;53.002;6.488;2022-12-29T10:44:58;8.80;99.90
54192;DHT22;40101;53.002;6.488;2022-12-29T10:47:31;8.80;99.90
54192;DHT22;40101;53.002;6.488;2022-12-29T10:49:59;8.80;99.90
54192;DHT22;40101;53.002;6.488;2022-12-29T10:52:27;8.80;99.90
54192;DHT22;40101;53.002;6.488;2022-12-29T10:54:58;8.80;99.90
54192;DHT22;40101;53.002;6.488;2022-12-29T10:57:34;8.80;99.90
54192;DHT22;40101;53.002;6.488;2022-12-29T11:00:00;8.90;99.90
54192;DHT22;40101;53.002;6.488;2022-12-29T11:02:41;8.80;99.90
54192;DHT22;40101;53.002;6.488;2022-12-29T11:07:47;8.80;99.90
54192;DHT22;40101;53.002;6.488;2022-12-29T11:12:57;8.80;99.90
54192;DHT22;40101;53.002;6.488;2022-12-29T11:15:23;9.00;99.90
54192;DHT22;40101;53.002;6.488;2022-12-29T11:17:50;8.90;99.90
54192;DHT22;40101;53.002;6.488;2022-12-29T11:20:37;8.90;99.90
54192;DHT22;40101;53.002;6.488;2022-12-29T11:23:18;8.90;99.90
54192;DHT22;40101;53.002;6.488;2022-12-29T11:25:46;8.90;99.90
54192;DHT22;40101;53.002;6.488;2022-12-29T11:28:16;8.90;99.90
54192;DHT22;40101;53.002;6.488;2022-12-29T11:30:42;8.90;99.90
54192;DHT22;40101;53.002;6.488;2022-12-29T11:33:09;8.90;99.90
54192;DHT22;40101;53.002;6.488;2022-12-29T11:35:42;9.00;99.90
54192;DHT22;40101;53.002;6.488;2022-12-29T11:38:24;9.00;99.90
54192;DHT22;40101;53.002;6.488;2022-12-29T11:40:51;9.00;99.90
54192;DHT22;40101;53.002;6.488;2022-12-29T11:43:38;9.00;99.90
54192;DHT22;40101;53.002;6.488;2022-12-29T11:46:05;9.40;99.90
54192;DHT22;40101;53.002;6.488;2022-12-29T11:48:41;9.10;99.90
54192;DHT22;40101;53.002;6.488;2022-12-29T11:51:08;9.30;99.90
54192;DHT22;40101;53.002;6.488;2022-12-29T11:53:46;9.40;99.90
54192;DHT22;40101;53.002;6.488;2022-12-29T11:56:17;9.50;99.90
54192;DHT22;40101;53.002;6.488;2022-12-29T11:58:45;9.70;99.90
54192;DHT22;40101;53.002;6.488;2022-12-29T12:04:06;9.90;99.90
54192;DHT22;40101;53.002;6.488;2022-12-29T12:06:36;9.90;99.90
54192;DHT22;40101;53.002;6.488;2022-12-29T12:09:16;9.90;99.90
54192;DHT22;40101;53.002;6.488;2022-12-29T12:11:45;10.00;99.90
54192;DHT22;40101;53.002;6.488;2022-12-29T12:14:35;10.00;99.90
54192;DHT22;40101;53.002;6.488;2022-12-29T12:17:12;9.90;99.90
54192;DHT22;40101;53.002;6.488;2022-12-29T12:19:43;9.90;99.90
54192;DHT22;40101;53.002;6.488;2022-12-29T12:22:31;9.90;99.90
54192;DHT22;40101;53.002;6.488;2022-12-29T12:25:17;9.90;99.90
54192;DHT22;40101;53.002;6.488;2022-12-29T12:28:14;10.10;99.90
54192;DHT22;40101;53.002;6.488;2022-12-29T12:30:49;9.80;99.90
54192;DHT22;40101;53.002;6.488;2022-12-29T12:33:24;10.00;99.90
54192;DHT22;40101;53.002;6.488;2022-12-29T12:51:26;9.80;99.90
54192;DHT22;40101;53.002;6.488;2022-12-29T12:57:02;9.80;99.90
54192;DHT22;40101;53.002;6.488;2022-12-29T12:59:55;9.80;99.90
54192;DHT22;40101;53.002;6.488;2022-12-29T13:05:01;9.70;99.90
54192;DHT22;40101;53.002;6.488;2022-12-29T13:07:31;9.70;99.90
54192;DHT22;40101;53.002;6.488;2022-12-29T13:15:54;9.90;99.90
54192;DHT22;40101;53.002;6.488;2022-12-29T13:18:37;10.20;99.90
54192;DHT22;40101;53.002;6.488;2022-12-29T13:21:24;10.10;99.90
54192;DHT22;40101;53.002;6.488;2022-12-29T13:26:50;10.10;99.90
54192;DHT22;40101;53.002;6.488;2022-12-29T13:30:08;10.10;99.90
54192;DHT22;40101;53.002;6.488;2022-12-29T13:38:10;9.90;99.90
54192;DHT22;40101;53.002;6.488;2022-12-29T13:40:41;9.90;99.90
54192;DHT22;40101;53.002;6.488;2022-12-29T13:43:09;9.80;99.90
54192;DHT22;40101;53.002;6.488;2022-12-29T13:45:35;9.80;99.90
54192;DHT22;40101;53.002;6.488;2022-12-29T13:50:34;9.80;99.90
54192;DHT22;40101;53.002;6.488;2022-12-29T13:53:26;9.80;99.90
54192;DHT22;40101;53.002;6.488;2022-12-29T13:56:12;9.70;99.90
54192;DHT22;40101;53.002;6.488;2022-12-29T13:59:00;9.70;99.90
54192;DHT22;40101;53.002;6.488;2022-12-29T14:01:40;9.70;99.90
54192;DHT22;40101;53.002;6.488;2022-12-29T14:04:25;9.70;99.90
54192;DHT22;40101;53.002;6.488;2022-12-29T14:07:03;9.70;99.90
54192;DHT22;40101;53.002;6.488;2022-12-29T14:09:46;9.60;99.90
54192;DHT22;40101;53.002;6.488;2022-12-29T14:12:30;9.50;99.90
54192;DHT22;40101;53.002;6.488;2022-12-29T14:15:21;9.40;99.90
54192;DHT22;40101;53.002;6.488;2022-12-29T14:21:00;9.20;99.90
54192;DHT22;40101;53.002;6.488;2022-12-29T14:23:48;9.20;99.90
54192;DHT22;40101;53.002;6.488;2022-12-29T14:28:55;9.10;99.90
54192;DHT22;40101;53.002;6.488;2022-12-29T14:36:55;9.10;99.90
54192;DHT22;40101;53.002;6.488;2022-12-29T14:39:49;9.10;99.90
54192;DHT22;40101;53.002;6.488;2022-12-29T14:42:46;9.00;99.90
54192;DHT22;40101;53.002;6.488;2022-12-29T14:47:41;9.20;99.90
54192;DHT22;40101;53.002;6.488;2022-12-29T14:50:18;8.90;99.90
54192;DHT22;40101;53.002;6.488;2022-12-29T14:52:53;8.90;99.90
54192;DHT22;40101;53.002;6.488;2022-12-29T15:00:42;8.70;99.90
54192;DHT22;40101;53.002;6.488;2022-12-29T15:03:17;8.90;99.90
54192;DHT22;40101;53.002;6.488;2022-12-29T15:05:52;8.70;99.90
54192;DHT22;40101;53.002;6.488;2022-12-29T15:08:26;8.50;99.90
54192;DHT22;40101;53.002;6.488;2022-12-29T15:11:23;8.80;99.90
54192;DHT22;40101;53.002;6.488;2022-12-29T15:16:33;8.50;99.90
54192;DHT22;40101;53.002;6.488;2022-12-29T15:19:02;8.50;99.90
54192;DHT22;40101;53.002;6.488;2022-12-29T15:21:35;8.70;99.90
54192;DHT22;40101;53.002;6.488;2022-12-29T15:24:03;8.50;99.90
54192;DHT22;40101;53.002;6.488;2022-12-29T15:26:52;8.50;99.90
54192;DHT22;40101;53.002;6.488;2022-12-29T15:32:01;8.50;99.90
54192;DHT22;40101;53.002;6.488;2022-12-29T15:34:35;8.50;99.90
54192;DHT22;40101;53.002;6.488;2022-12-29T15:37:06;8.60;99.90
54192;DHT22;40101;53.002;6.488;2022-12-29T15:39:33;8.40;99.90
54192;DHT22;40101;53.002;6.488;2022-12-29T15:44:43;8.20;99.90
54192;DHT22;40101;53.002;6.488;2022-12-29T15:47:36;9.20;99.90
54192;DHT22;40101;53.002;6.488;2022-12-29T15:56:33;8.20;99.90
54192;DHT22;40101;53.002;6.488;2022-12-29T16:04:24;8.10;99.90
54192;DHT22;40101;53.002;6.488;2022-12-29T16:07:05;8.10;99.90
54192;DHT22;40101;53.002;6.488;2022-12-29T16:09:43;8.60;99.90
54192;DHT22;40101;53.002;6.488;2022-12-29T16:12:19;8.20;99.90
54192;DHT22;40101;53.002;6.488;2022-12-29T16:14:47;8.00;99.90
54192;DHT22;40101;53.002;6.488;2022-12-29T16:17:17;8.10;99.90
54192;DHT22;40101;53.002;6.488;2022-12-29T16:20:02;8.20;99.90
54192;DHT22;40101;53.002;6.488;2022-12-29T16:23:01;8.20;99.90
54192;DHT22;40101;53.002;6.488;2022-12-29T16:25:37;8.30;99.90
54192;DHT22;40101;53.002;6.488;2022-12-29T16:28:25;8.30;99.90
54192;DHT22;40101;53.002;6.488;2022-12-29T16:31:06;8.40;99.90
54192;DHT22;40101;53.002;6.488;2022-12-29T16:33:44;8.50;99.90
54192;DHT22;40101;53.002;6.488;2022-12-29T16:39:20;8.50;99.90
54192;DHT22;40101;53.002;6.488;2022-12-29T16:41:50;8.50;99.90
54192;DHT22;40101;53.002;6.488;2022-12-29T16:47:04;8.40;99.90
54192;DHT22;40101;53.002;6.488;2022-12-29T16:49:34;8.40;99.90
54192;DHT22;40101;53.002;6.488;2022-12-29T16:52:00;8.30;99.90
54192;DHT22;40101;53.002;6.488;2022-12-29T16:54:36;8.40;99.90
54192;DHT22;40101;53.002;6.488;2022-12-29T16:57:12;8.30;99.90
54192;DHT22;40101;53.002;6.488;2022-12-29T16:59:41;8.20;99.90
54192;DHT22;40101;53.002;6.488;2022-12-29T17:02:15;8.20;99.90
54192;DHT22;40101;53.002;6.488;2022-12-29T17:04:41;8.10;99.90
54192;DHT22;40101;53.002;6.488;2022-12-29T17:07:24;8.10;99.90
54192;DHT22;40101;53.002;6.488;2022-12-29T17:10:00;8.30;99.90
54192;DHT22;40101;53.002;6.488;2022-12-29T17:15:51;8.00;99.90
54192;DHT22;40101;53.002;6.488;2022-12-29T17:18:25;7.90;99.90
54192;DHT22;40101;53.002;6.488;2022-12-29T17:24:18;7.90;99.90
54192;DHT22;40101;53.002;6.488;2022-12-29T17:26:50;7.80;99.90
54192;DHT22;40101;53.002;6.488;2022-12-29T17:29:32;7.80;99.90
54192;DHT22;40101;53.002;6.488;2022-12-29T17:32:01;7.70;99.90
54192;DHT22;40101;53.002;6.488;2022-12-29T17:34:27;7.80;99.90
54192;DHT22;40101;53.002;6.488;2022-12-29T17:36:53;7.70;99.90
54192;DHT22;40101;53.002;6.488;2022-12-29T17:39:18;7.70;99.90
54192;DHT22;40101;53.002;6.488;2022-12-29T17:41:44;7.70;99.90
54192;DHT22;40101;53.002;6.488;2022-12-29T17:44:15;7.60;99.90
54192;DHT22;40101;53.002;6.488;2022-12-29T17:46:42;7.60;99.90
54192;DHT22;40101;53.002;6.488;2022-12-29T17:49:14;7.60;99.90
54192;DHT22;40101;53.002;6.488;2022-12-29T17:51:41;7.50;99.90
54192;DHT22;40101;53.002;6.488;2022-12-29T17:54:22;7.50;99.90
54192;DHT22;40101;53.002;6.488;2022-12-29T17:56:49;7.40;99.90
54192;DHT22;40101;53.002;6.488;2022-12-29T17:59:16;7.40;99.90
54192;DHT22;40101;53.002;6.488;2022-12-29T18:01:42;7.30;99.90
54192;DHT22;40101;53.002;6.488;2022-12-29T18:04:13;7.30;99.90
54192;DHT22;40101;53.002;6.488;2022-12-29T18:06:40;7.30;99.90
54192;DHT22;40101;53.002;6.488;2022-12-29T18:09:06;7.20;99.90
54192;DHT22;40101;53.002;6.488;2022-12-29T18:11:34;7.20;99.90
54192;DHT22;40101;53.002;6.488;2022-12-29T18:14:00;7.20;99.90
54192;DHT22;40101;53.002;6.488;2022-12-29T18:16:26;7.20;99.90
54192;DHT22;40101;53.002;6.488;2022-12-29T18:18:52;7.20;99.90
54192;DHT22;40101;53.002;6.488;2022-12-29T18:21:20;7.20;99.90
54192;DHT22;40101;53.002;6.488;2022-12-29T18:23:47;7.20;99.90
54192;DHT22;40101;53.002;6.488;2022-12-29T18:26:17;7.20;99.90
54192;DHT22;40101;53.002;6.488;2022-12-29T18:28:43;7.20;99.90
54192;DHT22;40101;53.002;6.488;2022-12-29T18:33:43;7.20;99.90